Time,TemperatureF,DewpointF,PressureIn,WindDirection,WindDirectionDegrees,WindSpeedMPH,WindSpeedGustMPH,Humidity,HourlyPrecipIn,Conditions,Clouds,dailyrainin,SoftwareType,DateUTC
2013-03-13 00:04:00,46.6,46.0,30.16,ENE,60,0.0,2.0,99,0.00,,,0.00,weatherlink.com 1.10,2013-03-13 07:04:00,
2013-03-13 00:19:00,46.1,46.0,30.16,ENE,62,3.0,4.0,99,0.00,,,0.00,weatherlink.com 1.10,2013-03-13 07:19:00,
2013-03-13 00:34:00,45.9,46.0,30.16,East,90,0.0,4.0,99,0.00,,,0.00,weatherlink.com 1.10,2013-03-13 07:34:00,
2013-03-13 00:49:00,45.9,46.0,30.16,NE,54,0.0,2.0,99,0.00,,,0.00,weatherlink.com 1.10,2013-03-13 07:49:00,
2013-03-13 01:04:00,45.4,45.0,30.16,ENE,60,2.0,3.0,99,0.00,,,0.00,weatherlink.com 1.10,2013-03-13 08:04:00,
2013-03-13 01:19:00,45.4,45.0,30.16,ENE,60,0.0,2.0,99,0.00,,,0.00,weatherlink.com 1.10,2013-03-13 08:19:00,
2013-03-13 01:35:00,45.1,45.0,30.16,NE,41,2.0,3.0,99,0.00,,,0.00,weatherlink.com 1.10,2013-03-13 08:35:00,
2013-03-13 01:50:00,45.3,45.0,30.17,North,4,0.0,1.0,99,0.00,,,0.00,weatherlink.com 1.10,2013-03-13 08:50:00,
2013-03-13 02:05:00,45.6,45.0,30.17,NW,307,2.0,5.0,99,0.00,,,0.00,weatherlink.com 1.10,2013-03-13 09:05:00,
2013-03-13 02:20:00,45.8,46.0,30.17,West,274,0.0,4.0,99,0.00,,,0.00,weatherlink.com 1.10,2013-03-13 09:20:00,
2013-03-13 02:35:00,46.2,46.0,30.17,North,352,0.0,1.0,99,0.00,,,0.00,weatherlink.com 1.10,2013-03-13 09:35:00,
2013-03-13 02:50:00,46.3,46.0,30.17,SSW,203,0.0,0.0,99,0.00,,,0.00,weatherlink.com 1.10,2013-03-13 09:50:00,
2013-03-13 03:05:00,46.1,46.0,30.17,SW,222,1.0,3.0,99,0.00,,,0.00,weatherlink.com 1.10,2013-03-13 10:05:00,
2013-03-13 03:20:00,46.2,46.0,30.17,WSW,249,2.0,3.0,99,0.00,,,0.00,weatherlink.com 1.10,2013-03-13 10:20:00,
2013-03-13 03:35:00,46.3,46.0,30.17,SSE,160,0.0,2.0,99,0.00,,,0.00,weatherlink.com 1.10,2013-03-13 10:35:00,
2013-03-13 03:50:00,46.1,46.0,30.17,NE,51,0.0,0.0,99,0.00,,,0.00,weatherlink.com 1.10,2013-03-13 10:50:00,
2013-03-13 04:05:00,46.0,46.0,30.17,SE,139,0.0,0.0,99,0.00,,,0.00,weatherlink.com 1.10,2013-03-13 11:05:00,
2013-03-13 04:20:00,45.9,46.0,30.17,ENE,65,0.0,1.0,99,0.00,,,0.00,weatherlink.com 1.10,2013-03-13 11:20:00,
2013-03-13 04:35:00,45.5,45.0,30.17,ENE,67,0.0,0.0,99,0.00,,,0.00,weatherlink.com 1.10,2013-03-13 11:35:00,
2013-03-13 04:50:00,45.2,45.0,30.16,ESE,106,0.0,0.0,99,0.00,,,0.00,weatherlink.com 1.10,2013-03-13 11:50:00,
2013-03-13 05:05:00,44.6,44.0,30.16,ESE,104,0.0,1.0,99,0.00,,,0.00,weatherlink.com 1.10,2013-03-13 12:05:00,
2013-03-13 05:20:00,43.7,44.0,30.16,ESE,105,3.0,3.0,99,0.00,,,0.00,weatherlink.com 1.10,2013-03-13 12:20:00,
2013-03-13 05:35:00,42.9,43.0,30.16,East,89,4.0,4.0,99,0.00,,,0.00,weatherlink.com 1.10,2013-03-13 12:35:00,
2013-03-13 05:50:00,42.2,42.0,30.16,East,87,2.0,3.0,99,0.00,,,0.00,weatherlink.com 1.10,2013-03-13 12:50:00,
2013-03-13 06:04:00,42.2,42.0,30.17,ESE,121,0.0,2.0,99,0.00,,,0.00,weatherlink.com 1.10,2013-03-13 13:04:00,
2013-03-13 06:20:00,41.2,41.0,30.17,ENE,64,0.0,0.0,99,0.00,,,0.00,weatherlink.com 1.10,2013-03-13 13:20:00,
2013-03-13 06:35:00,40.5,40.0,30.17,East,89,0.0,0.0,99,0.00,,,0.00,weatherlink.com 1.10,2013-03-13 13:35:00,
2013-03-13 06:50:00,41.5,42.0,30.17,East,96,0.0,0.0,100,0.00,,,0.00,weatherlink.com 1.10,2013-03-13 13:50:00,
2013-03-13 07:06:00,41.8,42.0,30.17,East,96,0.0,0.0,100,0.00,,,0.00,weatherlink.com 1.10,2013-03-13 14:06:00,
2013-03-13 07:20:00,41.6,41.0,30.18,ENE,70,0.0,0.0,99,0.00,,,0.00,weatherlink.com 1.10,2013-03-13 14:20:00,
2013-03-13 07:35:00,41.4,41.0,30.18,NE,43,0.0,0.0,99,0.00,,,0.00,weatherlink.com 1.10,2013-03-13 14:35:00,
2013-03-13 07:50:00,40.6,40.0,30.18,ENE,57,2.0,4.0,99,0.00,,,0.00,weatherlink.com 1.10,2013-03-13 14:50:00,
2013-03-13 08:05:00,41.3,41.0,30.18,NE,46,0.0,0.0,100,0.00,,,0.00,weatherlink.com 1.10,2013-03-13 15:05:00,
2013-03-13 08:20:00,42.1,42.0,30.18,NE,49,0.0,0.0,100,0.00,,,0.00,weatherlink.com 1.10,2013-03-13 15:20:00,
2013-03-13 08:35:00,42.2,42.0,30.18,SSE,150,1.0,2.0,99,0.00,,,0.00,weatherlink.com 1.10,2013-03-13 15:35:00,
2013-03-13 08:50:00,42.8,43.0,30.18,SE,139,3.0,4.0,100,0.00,,,0.00,weatherlink.com 1.10,2013-03-13 15:50:00,
2013-03-13 09:05:00,43.5,44.0,30.19,WNW,291,2.0,4.0,100,0.00,,,0.00,weatherlink.com 1.10,2013-03-13 16:05:00,
2013-03-13 09:20:00,44.7,45.0,30.19,NW,308,0.0,4.0,100,0.00,,,0.00,weatherlink.com 1.10,2013-03-13 16:20:00,
2013-03-13 09:35:00,45.4,45.0,30.19,WNW,298,1.0,5.0,100,0.00,,,0.00,weatherlink.com 1.10,2013-03-13 16:35:00,
2013-03-13 09:50:00,46.2,46.0,30.19,West,281,2.0,4.0,100,0.00,,,0.00,weatherlink.com 1.10,2013-03-13 16:50:00,
2013-03-13 10:05:00,47.0,47.0,30.19,WNW,288,4.0,6.0,100,0.00,,,0.00,weatherlink.com 1.10,2013-03-13 17:05:00,
2013-03-13 10:20:00,47.8,48.0,30.19,NW,312,2.0,6.0,99,0.00,,,0.00,weatherlink.com 1.10,2013-03-13 17:20:00,
2013-03-13 10:35:00,48.9,49.0,30.19,West,269,3.0,6.0,99,0.00,,,0.00,weatherlink.com 1.10,2013-03-13 17:35:00,
2013-03-13 10:51:00,50.3,50.0,30.19,WSW,242,2.0,4.0,99,0.00,,,0.00,weatherlink.com 1.10,2013-03-13 17:51:00,
2013-03-13 11:06:00,52.2,52.0,30.18,West,278,3.0,5.0,99,0.00,,,0.00,weatherlink.com 1.10,2013-03-13 18:06:00,
2013-03-13 11:21:00,54.5,53.0,30.18,WNW,288,5.0,6.0,93,0.00,,,0.00,weatherlink.com 1.10,2013-03-13 18:21:00,
2013-03-13 11:52:00,55.4,53.0,30.18,NW,307,13.0,13.0,90,0.00,,,0.00,weatherlink.com 1.10,2013-03-13 18:52:00,
2013-03-13 12:51:00,55.6,53.0,30.17,NW,322,10.0,15.0,90,0.00,,,0.00,weatherlink.com 1.10,2013-03-13 19:51:00,
2013-03-13 13:21:00,57.4,53.0,30.17,WNW,295,9.0,15.0,86,0.00,,,0.00,weatherlink.com 1.10,2013-03-13 20:21:00,
2013-03-13 13:36:00,56.6,53.0,30.16,NW,307,6.0,15.0,86,0.00,,,0.00,weatherlink.com 1.10,2013-03-13 20:36:00,
2013-03-13 13:51:00,56.6,53.0,30.15,WNW,298,6.0,12.0,87,0.00,,,0.00,weatherlink.com 1.10,2013-03-13 20:51:00,
2013-03-13 14:06:00,57.3,54.0,30.14,WNW,295,8.0,9.0,87,0.00,,,0.00,weatherlink.com 1.10,2013-03-13 21:06:00,
2013-03-13 14:21:00,58.4,53.0,30.13,WNW,290,6.0,11.0,83,0.00,,,0.00,weatherlink.com 1.10,2013-03-13 21:21:00,
2013-03-13 14:36:00,60.5,54.0,30.13,NW,305,4.0,9.0,80,0.00,,,0.00,weatherlink.com 1.10,2013-03-13 21:36:00,
2013-03-13 14:51:00,62.8,56.0,30.12,WNW,301,4.0,9.0,77,0.00,,,0.00,weatherlink.com 1.10,2013-03-13 21:51:00,
2013-03-13 15:06:00,65.2,57.0,30.11,WNW,300,7.0,10.0,75,0.00,,,0.00,weatherlink.com 1.10,2013-03-13 22:06:00,
2013-03-13 15:21:00,66.3,58.0,30.11,WNW,284,6.0,9.0,74,0.00,,,0.00,weatherlink.com 1.10,2013-03-13 22:21:00,
2013-03-13 15:37:00,65.9,57.0,30.10,WNW,298,8.0,11.0,74,0.00,,,0.00,weatherlink.com 1.10,2013-03-13 22:37:00,
2013-03-13 15:52:00,65.8,57.0,30.10,NW,312,8.0,13.0,72,0.00,,,0.00,weatherlink.com 1.10,2013-03-13 22:52:00,
2013-03-13 16:07:00,60.6,53.0,30.11,NW,304,13.0,19.0,76,0.00,,,0.00,weatherlink.com 1.10,2013-03-13 23:07:00,
2013-03-13 16:22:00,55.4,51.0,30.12,West,271,11.0,17.0,85,0.00,,,0.00,weatherlink.com 1.10,2013-03-13 23:22:00,
2013-03-13 16:37:00,53.6,51.0,30.11,NW,310,9.0,18.0,89,0.00,,,0.00,weatherlink.com 1.10,2013-03-13 23:37:00,
2013-03-13 16:52:00,52.5,50.0,30.11,WNW,288,10.0,16.0,91,0.00,,,0.00,weatherlink.com 1.10,2013-03-13 23:52:00,
2013-03-13 17:07:00,52.1,50.0,30.11,West,276,11.0,17.0,92,0.00,,,0.00,weatherlink.com 1.10,2013-03-14 00:07:00,
2013-03-13 17:37:00,53.1,50.0,30.11,WNW,298,8.0,15.0,90,0.00,,,0.00,weatherlink.com 1.10,2013-03-14 00:37:00,
2013-03-13 17:52:00,52.3,50.0,30.11,WNW,297,8.0,13.0,90,0.00,,,0.00,weatherlink.com 1.10,2013-03-14 00:52:00,
2013-03-13 18:07:00,51.4,49.0,30.11,NW,305,7.0,9.0,92,0.00,,,0.00,weatherlink.com 1.10,2013-03-14 01:07:00,
2013-03-13 18:22:00,50.6,49.0,30.11,West,281,6.0,9.0,93,0.00,,,0.00,weatherlink.com 1.10,2013-03-14 01:22:00,
2013-03-13 18:37:00,50.0,49.0,30.11,West,278,4.0,7.0,95,0.00,,,0.00,weatherlink.com 1.10,2013-03-14 01:37:00,
2013-03-13 18:52:00,50.2,49.0,30.10,West,263,1.0,5.0,95,0.00,,,0.00,weatherlink.com 1.10,2013-03-14 01:52:00,
2013-03-13 19:07:00,49.7,48.0,30.10,WNW,284,1.0,2.0,95,0.00,,,0.00,weatherlink.com 1.10,2013-03-14 02:07:00,
2013-03-13 19:21:00,49.0,48.0,30.10,NE,39,0.0,1.0,95,0.00,,,0.00,weatherlink.com 1.10,2013-03-14 02:21:00,
2013-03-13 19:37:00,47.9,47.0,30.10,NE,50,0.0,0.0,96,0.00,,,0.00,weatherlink.com 1.10,2013-03-14 02:37:00,
2013-03-13 19:52:00,47.1,46.0,30.10,NE,56,0.0,0.0,96,0.00,,,0.00,weatherlink.com 1.10,2013-03-14 02:52:00,
2013-03-13 20:22:00,46.1,45.0,30.11,NE,46,1.0,2.0,97,0.00,,,0.00,weatherlink.com 1.10,2013-03-14 03:22:00,
2013-03-13 20:37:00,46.5,46.0,30.11,NE,41,0.0,2.0,97,0.00,,,0.00,weatherlink.com 1.10,2013-03-14 03:37:00,
2013-03-13 20:52:00,45.6,45.0,30.12,NE,41,0.0,0.0,96,0.00,,,0.00,weatherlink.com 1.10,2013-03-14 03:52:00,
2013-03-13 21:07:00,46.1,45.0,30.12,ENE,58,2.0,2.0,97,0.00,,,0.00,weatherlink.com 1.10,2013-03-14 04:07:00,
2013-03-13 21:22:00,47.1,47.0,30.12,NE,37,0.0,2.0,98,0.00,,,0.00,weatherlink.com 1.10,2013-03-14 04:22:00,
2013-03-13 21:37:00,47.5,47.0,30.13,ENE,57,0.0,0.0,98,0.00,,,0.00,weatherlink.com 1.10,2013-03-14 04:37:00,
2013-03-13 21:52:00,47.4,47.0,30.13,NNE,28,0.0,0.0,98,0.00,,,0.00,weatherlink.com 1.10,2013-03-14 04:52:00,
2013-03-13 22:07:00,47.2,47.0,30.14,NNE,16,0.0,0.0,98,0.00,,,0.00,weatherlink.com 1.10,2013-03-14 05:07:00,
2013-03-13 22:22:00,46.9,46.0,30.14,ENE,57,0.0,0.0,98,0.00,,,0.00,weatherlink.com 1.10,2013-03-14 05:22:00,
2013-03-13 22:37:00,45.8,45.0,30.14,NE,51,2.0,2.0,97,0.00,,,0.00,weatherlink.com 1.10,2013-03-14 05:37:00,
2013-03-13 22:52:00,45.8,45.0,30.15,NNE,19,1.0,3.0,98,0.00,,,0.00,weatherlink.com 1.10,2013-03-14 05:52:00,
2013-03-13 23:07:00,46.7,47.0,30.14,WNW,288,3.0,4.0,99,0.00,,,0.00,weatherlink.com 1.10,2013-03-14 06:07:00,
2013-03-13 23:22:00,46.8,47.0,30.14,WNW,295,1.0,5.0,99,0.00,,,0.00,weatherlink.com 1.10,2013-03-14 06:22:00,
2013-03-13 23:37:00,46.7,47.0,30.14,WNW,291,0.0,1.0,99,0.00,,,0.00,weatherlink.com 1.10,2013-03-14 06:37:00,
2013-03-13 23:52:00,46.5,46.0,30.15,NW,322,0.0,3.0,99,0.00,,,0.00,weatherlink.com 1.10,2013-03-14 06:52:00,